Terminal Aerodrome Forecast
Issued by NWS

Home | Current Version | Previous Version | Text Only | Print | Product List | Glossary Off
Versions: 1 2 3 4 5 6 7 8 9 10 11 12 13 14 15 16 17 18 19 20 21 22

000
FTUS43 KICT 241700
TAFHUT
TAF
KHUT 241725Z 2418/2518 20012KT P6SM SCT250
     FM250000 21006KT P6SM FEW250
     FM250900 VRB03KT 1SM BR FEW250
     FM251500 08008KT P6SM FEW250=

USA.gov is the U.S. government's official web portal to all federal, state and local government web resources and services.